createdAt,value
2023-03-02T00:01:06.278Z,99.90
2023-03-02T00:03:34.961Z,99.90
2023-03-02T00:06:03.881Z,99.90
2023-03-02T00:08:32.137Z,99.90
2023-03-02T00:11:01.390Z,99.90
2023-03-02T00:13:33.394Z,99.90
2023-03-02T00:16:01.657Z,99.90
2023-03-02T00:18:29.867Z,99.90
2023-03-02T00:20:57.948Z,99.90
2023-03-02T00:23:26.098Z,99.90
2023-03-02T00:25:54.302Z,99.90
2023-03-02T00:28:22.388Z,99.90
2023-03-02T00:30:51.888Z,99.90
2023-03-02T00:33:20.931Z,99.90
2023-03-02T00:35:49.109Z,99.90
2023-03-02T00:38:17.276Z,99.90
2023-03-02T00:40:46.948Z,99.90
2023-03-02T00:43:15.083Z,99.90
2023-03-02T00:45:43.283Z,99.90
2023-03-02T00:48:12.745Z,99.90
2023-03-02T00:50:41.702Z,99.90
2023-03-02T00:53:10.014Z,99.90
2023-03-02T00:55:39.122Z,99.90
2023-03-02T00:58:07.325Z,99.90
2023-03-02T01:00:36.396Z,99.90
2023-03-02T01:03:04.647Z,99.90
2023-03-02T01:05:38.082Z,99.90
2023-03-02T01:08:06.554Z,99.90
2023-03-02T01:10:36.267Z,99.90
2023-03-02T01:13:04.645Z,99.90
2023-03-02T01:15:32.946Z,99.90
2023-03-02T01:18:01.680Z,99.90
2023-03-02T01:20:30.556Z,99.90
2023-03-02T01:22:59.992Z,99.90
2023-03-02T01:25:28.161Z,99.90
2023-03-02T01:27:56.329Z,99.90
2023-03-02T01:30:24.411Z,99.90
2023-03-02T01:32:52.510Z,99.90
2023-03-02T01:35:20.682Z,99.90
2023-03-02T01:37:48.741Z,99.90
2023-03-02T01:40:18.352Z,99.90
2023-03-02T01:42:57.692Z,99.90
2023-03-02T01:45:54.257Z,99.90
2023-03-02T01:48:28.210Z,99.90
2023-03-02T01:50:56.454Z,99.90
2023-03-02T01:53:27.418Z,99.90
2023-03-02T01:55:57.504Z,99.90
2023-03-02T01:58:26.709Z,99.90
2023-03-02T02:00:57.102Z,99.90
2023-03-02T02:03:28.273Z,99.90
2023-03-02T02:06:04.641Z,99.90
2023-03-02T02:08:33.310Z,99.90
2023-03-02T02:11:02.836Z,99.90
2023-03-02T02:13:31.535Z,99.90
2023-03-02T02:15:59.640Z,99.90
2023-03-02T02:18:28.146Z,99.90
2023-03-02T02:20:57.329Z,99.90
2023-03-02T02:23:32.548Z,99.90
2023-03-02T02:26:18.553Z,99.90
2023-03-02T02:28:56.998Z,99.90
2023-03-02T02:31:30.114Z,99.90
2023-03-02T02:34:03.240Z,99.90
2023-03-02T02:36:35.830Z,99.90
2023-03-02T02:39:07.131Z,99.90
2023-03-02T02:41:40.334Z,99.90
2023-03-02T02:44:10.649Z,99.90
2023-03-02T02:46:38.741Z,99.90
2023-03-02T02:49:11.589Z,99.90
2023-03-02T02:51:39.724Z,99.90
2023-03-02T02:54:07.743Z,99.90
2023-03-02T02:56:40.445Z,99.90
2023-03-02T02:59:13.079Z,99.90
2023-03-02T03:01:41.385Z,99.90
2023-03-02T03:04:13.587Z,99.90
2023-03-02T03:06:51.858Z,99.90
2023-03-02T03:09:20.033Z,99.90
2023-03-02T03:11:51.503Z,99.90
2023-03-02T03:14:21.522Z,99.90
2023-03-02T03:16:51.335Z,99.90
2023-03-02T03:19:22.990Z,99.90
2023-03-02T03:21:52.996Z,99.90
2023-03-02T03:24:21.406Z,99.90
2023-03-02T03:26:51.229Z,99.90
2023-03-02T03:29:20.225Z,99.90
2023-03-02T03:31:48.294Z,99.90
2023-03-02T03:34:16.406Z,99.90
2023-03-02T03:36:45.037Z,99.90
2023-03-02T03:39:13.899Z,99.90
2023-03-02T03:41:42.345Z,99.90
2023-03-02T03:44:12.176Z,99.90
2023-03-02T03:46:40.305Z,99.90
2023-03-02T03:49:08.442Z,99.90
2023-03-02T03:51:36.529Z,99.90
2023-03-02T03:54:05.617Z,99.90
2023-03-02T03:56:35.771Z,99.90
2023-03-02T03:59:08.947Z,99.90
2023-03-02T04:01:40.815Z,99.90
2023-03-02T04:04:13.955Z,99.90
2023-03-02T04:06:42.395Z,99.90
2023-03-02T04:09:12.312Z,99.90
2023-03-02T04:11:42.447Z,99.90
2023-03-02T04:14:11.389Z,99.90
2023-03-02T04:16:41.525Z,99.90
2023-03-02T04:19:10.332Z,99.90
2023-03-02T04:21:39.591Z,99.90
2023-03-02T04:24:08.435Z,99.90
2023-03-02T04:26:37.950Z,99.90
2023-03-02T04:29:06.202Z,99.90
2023-03-02T04:31:34.665Z,99.90
2023-03-02T04:34:05.055Z,99.90
2023-03-02T04:36:35.264Z,99.90
2023-03-02T04:39:04.766Z,99.90
2023-03-02T04:41:32.851Z,99.90
2023-03-02T04:44:00.897Z,99.90
2023-03-02T04:46:29.701Z,99.90
2023-03-02T04:48:57.898Z,99.90
2023-03-02T04:51:29.929Z,99.90
2023-03-02T04:54:00.883Z,99.90
2023-03-02T04:56:29.411Z,99.90
2023-03-02T04:58:57.820Z,99.90
2023-03-02T05:01:27.447Z,99.90
2023-03-02T05:03:55.662Z,99.90
2023-03-02T05:06:25.126Z,99.90
2023-03-02T05:08:55.170Z,99.90
2023-03-02T05:11:25.886Z,99.90
2023-03-02T05:13:56.014Z,99.90
2023-03-02T05:16:25.071Z,99.90
2023-03-02T05:18:53.104Z,99.90
2023-03-02T05:21:21.095Z,99.90
2023-03-02T05:23:49.920Z,99.90
2023-03-02T05:26:19.770Z,99.90
2023-03-02T05:28:48.002Z,99.90
2023-03-02T05:31:20.228Z,99.90
2023-03-02T05:33:48.290Z,99.90
2023-03-02T05:36:19.000Z,99.90
2023-03-02T05:38:48.077Z,99.90
2023-03-02T05:41:16.417Z,99.90
2023-03-02T05:43:45.894Z,99.90
2023-03-02T05:46:14.206Z,99.90
2023-03-02T05:48:42.504Z,99.90
2023-03-02T05:51:10.621Z,99.90
2023-03-02T05:53:38.695Z,99.90
2023-03-02T05:56:08.307Z,99.90
2023-03-02T05:58:36.624Z,99.90
2023-03-02T06:01:10.261Z,99.90
2023-03-02T06:03:38.600Z,99.90
2023-03-02T06:06:07.171Z,99.90
2023-03-02T06:08:35.361Z,99.90
2023-03-02T06:11:03.610Z,99.90
2023-03-02T06:13:31.740Z,99.90
2023-03-02T06:15:59.944Z,99.90
2023-03-02T06:18:29.508Z,99.90
2023-03-02T06:20:57.655Z,99.90
2023-03-02T06:23:25.940Z,99.90
2023-03-02T06:25:54.359Z,99.90
2023-03-02T06:28:22.536Z,99.90
2023-03-02T06:30:52.328Z,99.90
2023-03-02T06:33:21.668Z,99.90
2023-03-02T06:35:51.390Z,99.90
2023-03-02T06:38:19.606Z,99.90
2023-03-02T06:40:48.225Z,99.90
2023-03-02T06:43:16.385Z,99.90
2023-03-02T06:45:44.494Z,99.90
2023-03-02T06:48:12.642Z,99.90
2023-03-02T06:50:40.799Z,99.90
2023-03-02T06:53:10.395Z,99.90
2023-03-02T06:55:38.683Z,99.90
2023-03-02T06:58:06.782Z,99.90
2023-03-02T07:00:34.971Z,99.90
2023-03-02T07:03:03.089Z,99.90
2023-03-02T07:05:32.757Z,99.90
2023-03-02T07:08:01.174Z,99.90
2023-03-02T07:10:30.698Z,99.90
2023-03-02T07:12:58.913Z,99.90
2023-03-02T07:15:27.415Z,99.90
2023-03-02T07:17:55.643Z,99.90
2023-03-02T07:20:23.683Z,99.90
2023-03-02T07:22:51.748Z,99.90
2023-03-02T07:25:19.947Z,99.90
2023-03-02T07:27:49.580Z,99.90
2023-03-02T07:30:21.070Z,99.90
2023-03-02T07:32:49.282Z,99.90
2023-03-02T07:35:18.161Z,99.90
2023-03-02T07:37:46.332Z,99.90
2023-03-02T07:40:15.219Z,99.90
2023-03-02T07:42:43.252Z,99.90
2023-03-02T07:45:13.610Z,99.90
2023-03-02T07:47:45.496Z,99.90
2023-03-02T07:50:14.109Z,99.90
2023-03-02T07:52:42.121Z,99.90
2023-03-02T07:55:11.355Z,99.90
2023-03-02T07:57:39.497Z,99.90
2023-03-02T08:00:09.292Z,99.90
2023-03-02T08:02:39.031Z,99.90
2023-03-02T08:05:08.125Z,99.90
2023-03-02T08:07:36.421Z,99.90
2023-03-02T08:10:05.514Z,99.90
2023-03-02T08:12:35.003Z,99.90
2023-03-02T08:15:04.880Z,99.90
2023-03-02T08:17:33.161Z,99.50
2023-03-02T08:20:03.960Z,98.40
2023-03-02T08:22:32.096Z,96.80
2023-03-02T08:25:10.649Z,97.20
2023-03-02T08:27:40.266Z,96.80
2023-03-02T08:30:10.679Z,96.30
2023-03-02T08:32:38.829Z,95.20
2023-03-02T08:35:09.215Z,94.40
2023-03-02T08:37:37.351Z,93.10
2023-03-02T08:40:06.181Z,91.40
2023-03-02T08:42:34.274Z,90.10
2023-03-02T08:45:02.376Z,84.80
2023-03-02T08:47:30.436Z,80.00
2023-03-02T08:49:58.541Z,74.60
2023-03-02T08:52:27.945Z,74.20
2023-03-02T08:54:56.133Z,70.10
2023-03-02T08:57:24.298Z,67.60
2023-03-02T08:59:52.747Z,65.90
2023-03-02T09:02:20.815Z,60.40
2023-03-02T09:04:49.006Z,60.80
2023-03-02T09:07:17.444Z,58.80
2023-03-02T09:09:47.020Z,56.50
2023-03-02T09:12:15.045Z,55.10
2023-03-02T09:14:43.153Z,51.30
2023-03-02T09:17:13.006Z,50.30
2023-03-02T09:19:44.597Z,48.40
2023-03-02T09:22:13.010Z,47.90
2023-03-02T09:24:41.159Z,49.30
2023-03-02T09:27:10.813Z,48.80
2023-03-02T09:29:39.005Z,46.60
2023-03-02T09:32:08.328Z,46.30
2023-03-02T09:34:36.562Z,43.50
2023-03-02T09:37:04.843Z,44.70
2023-03-02T09:39:33.021Z,41.60
2023-03-02T09:42:43.576Z,42.50
2023-03-02T09:45:25.643Z,41.30
2023-03-02T09:48:05.404Z,39.60
2023-03-02T09:50:36.196Z,41.00
2023-03-02T09:53:30.269Z,41.30
2023-03-02T09:56:01.803Z,42.30
2023-03-02T09:58:36.022Z,42.50
2023-03-02T10:01:10.407Z,42.40
2023-03-02T10:03:46.418Z,42.90
2023-03-02T10:06:14.735Z,41.40
2023-03-02T10:08:43.545Z,42.40
2023-03-02T10:11:20.319Z,42.80
2023-03-02T10:13:53.650Z,43.00
2023-03-02T10:16:32.467Z,42.30
2023-03-02T10:19:09.478Z,42.70
2023-03-02T10:21:40.940Z,43.70
2023-03-02T10:24:21.895Z,42.80
2023-03-02T10:26:54.347Z,41.60
2023-03-02T10:29:50.768Z,40.30
2023-03-02T10:32:22.654Z,41.50
2023-03-02T10:34:52.799Z,41.20
2023-03-02T10:37:25.286Z,42.00
2023-03-02T10:39:53.788Z,41.60
2023-03-02T10:42:27.123Z,41.70
2023-03-02T10:44:59.714Z,42.20
2023-03-02T10:47:30.118Z,41.90
2023-03-02T10:49:59.252Z,42.00
2023-03-02T10:52:28.994Z,42.70
2023-03-02T10:55:04.732Z,40.80
2023-03-02T10:57:38.503Z,40.20
2023-03-02T11:00:17.179Z,42.50
2023-03-02T11:02:52.666Z,40.90
2023-03-02T11:05:24.889Z,41.00
2023-03-02T11:07:54.947Z,40.80
2023-03-02T11:10:24.626Z,41.70
2023-03-02T11:12:54.840Z,43.00
2023-03-02T11:15:29.750Z,42.90
2023-03-02T11:18:05.964Z,43.00
2023-03-02T11:20:39.021Z,43.90
2023-03-02T11:23:17.283Z,44.10
2023-03-02T11:25:50.916Z,44.30
2023-03-02T11:28:32.964Z,46.00
2023-03-02T11:31:05.903Z,47.70
2023-03-02T11:33:40.348Z,47.50
2023-03-02T11:36:15.242Z,48.20
2023-03-02T11:38:48.882Z,48.40
2023-03-02T11:41:27.346Z,49.90
2023-03-02T11:43:56.464Z,50.80
2023-03-02T11:46:30.646Z,50.80
2023-03-02T11:49:04.738Z,52.90
2023-03-02T11:51:40.548Z,52.80
2023-03-02T11:54:23.740Z,51.10
2023-03-02T11:56:52.270Z,53.10
2023-03-02T11:59:22.069Z,54.00
2023-03-02T12:01:53.868Z,52.80
2023-03-02T12:04:30.324Z,52.30
2023-03-02T12:06:58.359Z,52.80
2023-03-02T12:09:44.416Z,51.90
2023-03-02T12:12:37.630Z,53.80
2023-03-02T12:15:21.235Z,55.40
2023-03-02T12:17:52.158Z,53.80
2023-03-02T12:20:27.072Z,55.00
2023-03-02T12:22:55.826Z,56.70
2023-03-02T12:25:37.480Z,56.90
2023-03-02T12:28:26.059Z,56.30
2023-03-02T12:30:58.780Z,55.50
2023-03-02T12:33:28.552Z,56.60
2023-03-02T12:36:06.009Z,56.30
2023-03-02T12:38:39.698Z,57.00
2023-03-02T12:41:36.682Z,56.70
2023-03-02T12:44:21.480Z,56.90
2023-03-02T12:46:50.937Z,56.40
2023-03-02T12:49:45.665Z,55.60
2023-03-02T12:52:29.957Z,55.90
2023-03-02T12:55:03.336Z,55.30
2023-03-02T12:57:31.618Z,55.90
2023-03-02T13:00:03.000Z,55.40
2023-03-02T13:02:32.454Z,57.70
2023-03-02T13:05:04.848Z,54.60
2023-03-02T13:07:37.859Z,55.30
2023-03-02T13:10:17.059Z,56.20
2023-03-02T13:12:47.455Z,55.20
2023-03-02T13:15:18.697Z,55.00
2023-03-02T13:17:54.534Z,56.30
2023-03-02T13:20:26.501Z,55.50
2023-03-02T13:22:55.287Z,55.40
2023-03-02T13:25:27.252Z,55.50
2023-03-02T13:27:56.867Z,57.00
2023-03-02T13:30:28.410Z,57.20
2023-03-02T13:33:01.823Z,57.60
2023-03-02T13:35:33.424Z,56.10
2023-03-02T13:38:05.123Z,56.40
2023-03-02T13:40:42.207Z,55.80
2023-03-02T13:43:37.145Z,55.50
2023-03-02T13:46:07.511Z,55.40
2023-03-02T13:48:38.677Z,55.00
2023-03-02T13:51:18.052Z,55.40
2023-03-02T13:53:52.271Z,55.20
2023-03-02T13:56:21.858Z,55.10
2023-03-02T13:58:50.191Z,53.80
2023-03-02T14:01:18.354Z,53.90
2023-03-02T14:03:46.519Z,53.00
2023-03-02T14:06:18.794Z,53.60
2023-03-02T14:08:47.199Z,54.80
2023-03-02T14:11:16.042Z,54.80
2023-03-02T14:13:46.670Z,54.60
2023-03-02T14:16:16.046Z,53.00
2023-03-02T14:18:47.385Z,53.10
2023-03-02T14:21:19.299Z,52.80
2023-03-02T14:23:48.306Z,53.00
2023-03-02T14:26:32.932Z,52.50
2023-03-02T14:29:06.064Z,52.50
2023-03-02T14:31:35.077Z,52.00
2023-03-02T14:34:03.523Z,51.50
2023-03-02T14:36:35.159Z,52.50
2023-03-02T14:39:07.405Z,52.70
2023-03-02T14:41:52.520Z,54.10
2023-03-02T14:44:21.638Z,55.00
2023-03-02T14:46:49.780Z,55.30
2023-03-02T14:49:17.848Z,55.90
2023-03-02T14:51:57.010Z,58.00
2023-03-02T14:54:25.452Z,58.10
2023-03-02T14:56:53.824Z,58.50
2023-03-02T14:59:22.402Z,59.60
2023-03-02T15:01:50.627Z,60.00
2023-03-02T15:04:18.922Z,60.80
2023-03-02T15:06:48.462Z,61.60
2023-03-02T15:09:16.580Z,62.40
2023-03-02T15:11:44.857Z,62.70
2023-03-02T15:14:12.937Z,63.30
2023-03-02T15:16:42.918Z,64.00
2023-03-02T15:19:11.468Z,63.90
2023-03-02T15:21:44.725Z,65.20
2023-03-02T15:24:14.844Z,66.60
2023-03-02T15:26:43.233Z,66.60
2023-03-02T15:29:11.909Z,66.50
2023-03-02T15:31:40.206Z,66.50
2023-03-02T15:34:08.525Z,66.40
2023-03-02T15:36:36.795Z,66.80
2023-03-02T15:39:05.524Z,67.70
2023-03-02T15:41:35.592Z,67.40
2023-03-02T15:44:03.947Z,67.50
2023-03-02T15:46:32.141Z,67.20
2023-03-02T15:49:03.374Z,68.00
2023-03-02T15:51:31.544Z,68.50
2023-03-02T15:53:59.845Z,68.20
2023-03-02T15:56:32.890Z,69.20
2023-03-02T15:59:08.362Z,69.80
2023-03-02T16:01:36.411Z,69.30
2023-03-02T16:04:04.568Z,69.40
2023-03-02T16:06:32.759Z,70.00
2023-03-02T16:09:01.043Z,70.30
2023-03-02T16:11:29.165Z,70.90
2023-03-02T16:13:57.292Z,72.00
2023-03-02T16:16:27.778Z,74.60
2023-03-02T16:18:57.572Z,75.60
2023-03-02T16:21:29.658Z,76.50
2023-03-02T16:24:03.355Z,76.90
2023-03-02T16:26:32.713Z,77.70
2023-03-02T16:29:01.172Z,77.90
2023-03-02T16:31:33.191Z,78.40
2023-03-02T16:34:06.973Z,78.70
2023-03-02T16:36:35.719Z,78.90
2023-03-02T16:39:04.023Z,79.20
2023-03-02T16:41:32.226Z,79.50
2023-03-02T16:44:01.506Z,79.60
2023-03-02T16:46:36.340Z,80.80
2023-03-02T16:49:05.914Z,81.20
2023-03-02T16:51:34.595Z,81.70
2023-03-02T16:54:03.821Z,82.00
2023-03-02T16:56:31.979Z,82.70
2023-03-02T16:59:00.464Z,82.80
2023-03-02T17:01:30.389Z,82.70
2023-03-02T17:03:58.659Z,83.10
2023-03-02T17:06:26.837Z,83.40
2023-03-02T17:08:55.077Z,83.80
2023-03-02T17:11:23.149Z,84.40
2023-03-02T17:13:51.344Z,84.70
2023-03-02T17:16:19.495Z,85.60
2023-03-02T17:18:49.016Z,85.50
2023-03-02T17:21:17.943Z,86.20
2023-03-02T17:23:47.983Z,86.80
2023-03-02T17:26:16.747Z,87.50
2023-03-02T17:28:44.991Z,88.00
2023-03-02T17:31:13.327Z,88.90
2023-03-02T17:33:42.289Z,89.90
2023-03-02T17:36:12.921Z,90.20
2023-03-02T17:38:41.650Z,90.50
2023-03-02T17:41:11.897Z,90.80
2023-03-02T17:43:42.375Z,91.10
2023-03-02T17:46:13.906Z,91.30
2023-03-02T17:48:42.837Z,91.90
2023-03-02T17:51:14.930Z,91.90
2023-03-02T17:53:43.306Z,92.20
2023-03-02T17:56:12.772Z,92.60
2023-03-02T17:58:44.959Z,92.90
2023-03-02T18:01:15.915Z,93.20
2023-03-02T18:03:45.768Z,93.60
2023-03-02T18:06:18.029Z,93.90
2023-03-02T18:08:46.966Z,94.40
2023-03-02T18:11:15.168Z,94.80
2023-03-02T18:13:43.300Z,95.20
2023-03-02T18:16:12.263Z,95.70
2023-03-02T18:18:40.765Z,96.50
2023-03-02T18:21:08.972Z,97.10
2023-03-02T18:23:39.871Z,97.50
2023-03-02T18:26:08.145Z,98.20
2023-03-02T18:28:36.469Z,98.70
2023-03-02T18:31:04.812Z,99.40
2023-03-02T18:33:33.247Z,99.90
2023-03-02T18:36:05.171Z,99.90
2023-03-02T18:38:33.837Z,99.90
2023-03-02T18:41:05.822Z,99.90
2023-03-02T18:43:38.658Z,99.90
2023-03-02T18:46:10.405Z,99.90
2023-03-02T18:48:39.629Z,99.90
2023-03-02T18:51:08.118Z,99.90
2023-03-02T18:53:36.377Z,99.90
2023-03-02T18:56:06.432Z,99.90
2023-03-02T18:58:34.827Z,99.90
2023-03-02T19:01:03.785Z,99.90
2023-03-02T19:03:32.867Z,99.90
2023-03-02T19:06:02.509Z,99.90
2023-03-02T19:08:31.024Z,99.90
2023-03-02T19:10:59.562Z,99.90
2023-03-02T19:13:29.310Z,99.90
2023-03-02T19:15:57.867Z,99.90
2023-03-02T19:18:27.268Z,99.90
2023-03-02T19:20:55.874Z,99.90
2023-03-02T19:23:24.558Z,99.90
2023-03-02T19:25:53.445Z,99.90
2023-03-02T19:28:22.936Z,99.90
2023-03-02T19:30:53.125Z,99.90
2023-03-02T19:33:25.060Z,99.90
2023-03-02T19:35:53.447Z,99.90
2023-03-02T19:38:22.755Z,99.90
2023-03-02T19:40:51.484Z,99.90
2023-03-02T19:43:20.775Z,99.90
2023-03-02T19:45:49.828Z,99.90
2023-03-02T19:48:19.882Z,99.90
2023-03-02T19:50:49.241Z,99.90
2023-03-02T19:53:17.969Z,99.90
2023-03-02T19:55:46.615Z,99.90
2023-03-02T19:58:17.530Z,99.90
2023-03-02T20:00:47.070Z,99.90
2023-03-02T20:03:16.098Z,99.90
2023-03-02T20:05:46.037Z,99.90
2023-03-02T20:08:16.880Z,99.90
2023-03-02T20:10:49.559Z,99.90
2023-03-02T20:13:19.393Z,99.90
2023-03-02T20:15:49.335Z,99.90
2023-03-02T20:18:21.452Z,99.90
2023-03-02T20:20:51.833Z,99.90
2023-03-02T20:23:20.583Z,99.90
2023-03-02T20:25:49.960Z,99.90
2023-03-02T20:28:23.008Z,99.90
2023-03-02T20:30:54.071Z,99.90
2023-03-02T20:33:28.375Z,99.90
2023-03-02T20:36:01.018Z,99.90
2023-03-02T20:38:34.618Z,99.90
2023-03-02T20:41:04.156Z,99.90
2023-03-02T20:43:32.840Z,99.90
2023-03-02T20:46:02.280Z,99.90
2023-03-02T20:48:30.971Z,99.90
2023-03-02T20:51:01.338Z,99.90
2023-03-02T20:53:30.817Z,99.90
2023-03-02T20:55:59.567Z,99.90
2023-03-02T20:58:28.449Z,99.90
2023-03-02T21:00:57.380Z,99.90
2023-03-02T21:03:26.482Z,99.90
2023-03-02T21:05:55.094Z,99.90
2023-03-02T21:08:26.213Z,99.90
2023-03-02T21:10:54.863Z,99.90
2023-03-02T21:13:23.686Z,99.90
2023-03-02T21:15:52.593Z,99.90
2023-03-02T21:18:21.541Z,99.90
2023-03-02T21:20:50.638Z,99.90
2023-03-02T21:23:19.399Z,99.90
2023-03-02T21:25:49.680Z,99.90
2023-03-02T21:28:18.380Z,99.90
2023-03-02T21:30:46.848Z,99.90
2023-03-02T21:33:15.257Z,99.90
2023-03-02T21:35:47.351Z,99.90
2023-03-02T21:38:15.631Z,99.90
2023-03-02T21:40:46.075Z,99.90
2023-03-02T21:43:16.827Z,99.90
2023-03-02T21:45:45.407Z,99.90
2023-03-02T21:48:15.056Z,99.90
2023-03-02T21:50:44.267Z,99.90
2023-03-02T21:53:12.410Z,99.90
2023-03-02T21:55:40.878Z,99.90
2023-03-02T21:58:09.106Z,99.90
2023-03-02T22:00:40.522Z,99.90
2023-03-02T22:03:08.925Z,99.90
2023-03-02T22:05:37.206Z,99.90
2023-03-02T22:08:05.783Z,99.90
2023-03-02T22:10:39.354Z,99.90
2023-03-02T22:13:18.214Z,99.90
2023-03-02T22:15:49.554Z,99.90
2023-03-02T22:18:20.389Z,99.90
2023-03-02T22:20:50.661Z,99.90
2023-03-02T22:23:21.186Z,99.90
2023-03-02T22:25:52.070Z,99.90
2023-03-02T22:28:22.503Z,99.90
2023-03-02T22:30:53.511Z,99.90
2023-03-02T22:33:23.690Z,99.90
2023-03-02T22:35:54.037Z,99.90
2023-03-02T22:38:25.469Z,99.90
2023-03-02T22:40:54.350Z,99.90
2023-03-02T22:43:26.189Z,99.90
2023-03-02T22:46:00.090Z,99.90
2023-03-02T22:48:30.346Z,99.90
2023-03-02T22:50:58.539Z,99.90
2023-03-02T22:53:30.132Z,99.90
2023-03-02T22:56:00.505Z,99.90
2023-03-02T22:58:42.613Z,99.90
2023-03-02T23:01:21.835Z,99.90
2023-03-02T23:03:51.511Z,99.90
2023-03-02T23:06:32.069Z,99.90
2023-03-02T23:09:01.989Z,99.90
2023-03-02T23:11:34.698Z,99.90
2023-03-02T23:14:03.983Z,99.90
2023-03-02T23:16:37.052Z,99.90
2023-03-02T23:19:05.802Z,99.90
2023-03-02T23:21:39.701Z,99.90
2023-03-02T23:24:09.074Z,99.90
2023-03-02T23:26:38.181Z,99.90
2023-03-02T23:29:06.779Z,99.90
2023-03-02T23:31:36.304Z,99.90
2023-03-02T23:34:04.457Z,99.90
2023-03-02T23:36:32.661Z,99.90
2023-03-02T23:39:00.868Z,99.90
2023-03-02T23:41:28.966Z,99.90
2023-03-02T23:43:57.162Z,99.90
2023-03-02T23:46:25.800Z,99.90
2023-03-02T23:48:56.170Z,99.90
2023-03-02T23:51:25.463Z,99.90
2023-03-02T23:53:53.723Z,99.90
2023-03-02T23:56:22.042Z,99.90
2023-03-02T23:58:50.444Z,99.90
